createdAt,value
2018-06-15T00:00:10.315Z,18.00
2018-06-15T00:02:38.512Z,18.10
2018-06-15T00:05:06.869Z,18.10
2018-06-15T00:07:35.041Z,18.10
2018-06-15T00:10:03.219Z,18.10
2018-06-15T00:12:32.205Z,18.10
2018-06-15T00:15:01.212Z,18.10
2018-06-15T00:19:57.385Z,18.20
2018-06-15T00:22:25.617Z,18.20
2018-06-15T00:24:53.817Z,18.10
2018-06-15T00:27:22.015Z,18.10
2018-06-15T00:29:50.208Z,18.20
2018-06-15T00:32:18.506Z,18.20
2018-06-15T00:34:46.676Z,18.20
2018-06-15T00:37:14.840Z,18.20
2018-06-15T00:39:43.052Z,18.10
2018-06-15T00:42:11.275Z,18.10
2018-06-15T00:44:39.448Z,18.20
2018-06-15T00:47:07.844Z,18.10
2018-06-15T00:49:36.116Z,18.10
2018-06-15T00:52:04.339Z,18.00
2018-06-15T00:54:32.567Z,18.00
2018-06-15T00:57:12.075Z,18.00
2018-06-15T00:59:40.483Z,18.00
2018-06-15T01:02:08.709Z,17.90
2018-06-15T01:04:36.920Z,17.90
2018-06-15T01:07:05.254Z,17.80
2018-06-15T01:09:33.424Z,17.70
2018-06-15T01:12:01.649Z,17.70
2018-06-15T01:14:29.837Z,17.70
2018-06-15T01:16:58.024Z,17.60
2018-06-15T01:19:26.299Z,17.60
2018-06-15T01:21:54.478Z,17.60
2018-06-15T01:24:22.708Z,17.50
2018-06-15T01:26:50.953Z,17.50
2018-06-15T01:29:19.153Z,17.50
2018-06-15T01:31:47.347Z,17.50
2018-06-15T01:34:15.571Z,17.50
2018-06-15T01:36:43.747Z,17.50
2018-06-15T01:39:12.317Z,17.40
2018-06-15T01:41:40.547Z,17.40
2018-06-15T01:44:08.763Z,17.40
2018-06-15T01:46:36.956Z,17.40
2018-06-15T01:49:05.308Z,17.40
2018-06-15T01:51:33.500Z,17.30
2018-06-15T01:54:01.688Z,17.40
2018-06-15T01:56:29.891Z,17.40
2018-06-15T01:58:58.175Z,17.40
2018-06-15T02:01:26.449Z,17.40
2018-06-15T02:03:54.855Z,17.40
2018-06-15T02:06:23.084Z,17.50
2018-06-15T02:08:51.281Z,17.50
2018-06-15T02:13:47.454Z,17.50
2018-06-15T02:16:15.668Z,17.50
2018-06-15T02:18:43.882Z,17.50
2018-06-15T02:21:12.096Z,17.50
2018-06-15T02:23:40.565Z,17.50
2018-06-15T02:26:08.764Z,17.50
2018-06-15T02:28:36.984Z,17.40
2018-06-15T02:31:05.189Z,17.40
2018-06-15T02:33:33.404Z,17.30
2018-06-15T02:36:01.635Z,17.30
2018-06-15T02:38:29.886Z,17.30
2018-06-15T02:40:58.123Z,17.30
2018-06-15T02:43:26.533Z,17.40
2018-06-15T02:45:56.846Z,17.50
2018-06-15T02:48:26.597Z,17.60
2018-06-15T02:50:54.824Z,17.60
2018-06-15T02:53:23.553Z,17.70
2018-06-15T02:55:52.129Z,17.70
2018-06-15T02:58:20.926Z,17.80
2018-06-15T03:03:17.084Z,17.80
2018-06-15T03:05:46.184Z,17.70
2018-06-15T03:08:14.408Z,17.70
2018-06-15T03:10:42.785Z,17.70
2018-06-15T03:13:11.057Z,17.70
2018-06-15T03:15:39.455Z,17.70
2018-06-15T03:18:07.694Z,17.70
2018-06-15T03:20:35.944Z,17.70
2018-06-15T03:23:04.177Z,17.70
2018-06-15T03:25:32.384Z,17.70
2018-06-15T03:28:00.596Z,17.80
2018-06-15T03:30:28.816Z,17.80
2018-06-15T03:32:57.026Z,17.80
2018-06-15T03:35:25.277Z,17.80
2018-06-15T03:37:53.514Z,17.80
2018-06-15T03:40:21.900Z,17.90
2018-06-15T03:42:50.152Z,17.90
2018-06-15T03:45:18.394Z,17.90
2018-06-15T03:47:46.594Z,17.90
2018-06-15T03:50:14.804Z,18.00
2018-06-15T03:52:43.021Z,18.00
2018-06-15T03:57:39.245Z,18.10
2018-06-15T04:00:07.498Z,18.10
2018-06-15T04:02:35.764Z,18.10
2018-06-15T04:05:03.989Z,18.10
2018-06-15T04:07:32.240Z,18.10
2018-06-15T04:10:00.640Z,18.10
2018-06-15T04:12:28.898Z,18.00
2018-06-15T04:14:57.172Z,18.00
2018-06-15T04:17:25.479Z,18.00
2018-06-15T04:19:53.803Z,18.10
2018-06-15T04:22:22.037Z,18.10
2018-06-15T04:24:50.299Z,18.10
2018-06-15T04:27:18.575Z,18.20
2018-06-15T04:29:46.834Z,18.30
2018-06-15T04:32:15.088Z,18.30
2018-06-15T04:34:43.333Z,18.40
2018-06-15T04:37:11.604Z,18.30
2018-06-15T04:39:39.951Z,18.40
2018-06-15T04:44:36.225Z,18.40
2018-06-15T04:47:04.761Z,18.40
2018-06-15T04:49:33.031Z,18.40
2018-06-15T04:52:01.418Z,18.40
2018-06-15T04:54:30.058Z,18.40
2018-06-15T04:56:58.304Z,18.30
2018-06-15T04:59:26.580Z,18.30
2018-06-15T05:01:54.810Z,18.30
2018-06-15T05:04:23.098Z,18.30
2018-06-15T05:06:51.379Z,18.30
2018-06-15T05:09:19.883Z,18.40
2018-06-15T05:11:48.120Z,18.40
2018-06-15T05:14:16.388Z,18.40
2018-06-15T05:16:44.625Z,18.50
2018-06-15T05:19:12.881Z,18.60
2018-06-15T05:21:41.176Z,18.70
2018-06-15T05:24:09.452Z,18.80
2018-06-15T05:26:37.772Z,18.80
2018-06-15T05:29:06.040Z,18.80
2018-06-15T05:31:34.324Z,18.80
2018-06-15T05:34:02.637Z,18.90
2018-06-15T05:36:30.904Z,19.00
2018-06-15T05:38:59.346Z,19.00
2018-06-15T05:41:27.652Z,19.00
2018-06-15T05:43:55.924Z,19.20
2018-06-15T05:46:24.169Z,19.20
2018-06-15T05:48:52.883Z,19.30
2018-06-15T05:51:21.276Z,19.30
2018-06-15T05:53:49.541Z,19.30
2018-06-15T05:56:17.797Z,19.40
2018-06-15T05:58:47.371Z,19.40
2018-06-15T06:01:15.627Z,19.30
2018-06-15T06:03:43.904Z,19.30
2018-06-15T06:06:12.141Z,19.40
2018-06-15T06:08:40.571Z,19.40
2018-06-15T06:11:09.325Z,19.40
2018-06-15T06:13:37.640Z,19.50
2018-06-15T06:16:05.918Z,19.50
2018-06-15T06:18:34.211Z,19.50
2018-06-15T06:21:02.786Z,19.50
2018-06-15T06:23:31.132Z,19.50
2018-06-15T06:25:59.472Z,19.60
2018-06-15T06:28:27.730Z,19.70
2018-06-15T06:30:56.012Z,19.90
2018-06-15T06:33:24.309Z,20.00
2018-06-15T06:35:52.716Z,20.00
2018-06-15T06:38:21.004Z,19.90
2018-06-15T06:40:49.247Z,20.00
2018-06-15T06:43:17.511Z,20.10
2018-06-15T06:45:45.724Z,20.10
2018-06-15T06:48:13.947Z,20.20
2018-06-15T06:50:42.199Z,20.20
2018-06-15T06:53:10.448Z,20.20
2018-06-15T06:55:38.697Z,20.20
2018-06-15T06:58:06.922Z,20.40
2018-06-15T07:00:35.364Z,20.50
2018-06-15T07:03:03.582Z,20.60
2018-06-15T07:05:31.812Z,20.60
2018-06-15T07:08:00.105Z,20.70
2018-06-15T07:12:56.360Z,20.80
2018-06-15T07:15:24.644Z,20.80
2018-06-15T07:17:52.872Z,20.80
2018-06-15T07:20:21.139Z,20.90
2018-06-15T07:22:49.371Z,20.90
2018-06-15T07:25:17.890Z,21.00
2018-06-15T07:27:46.167Z,21.10
2018-06-15T07:30:14.492Z,21.20
2018-06-15T07:32:42.736Z,21.20
2018-06-15T07:35:11.017Z,21.00
2018-06-15T07:37:39.353Z,20.80
2018-06-15T07:40:07.580Z,20.80
2018-06-15T07:42:35.847Z,21.00
2018-06-15T07:45:04.203Z,21.20
2018-06-15T07:47:32.436Z,21.30
2018-06-15T07:50:01.076Z,21.30
2018-06-15T07:52:29.394Z,21.20
2018-06-15T07:54:57.637Z,21.20
2018-06-15T07:57:25.860Z,21.20
2018-06-15T07:59:54.243Z,21.20
2018-06-15T08:02:22.539Z,21.30
2018-06-15T08:04:50.771Z,21.50
2018-06-15T08:07:19.040Z,21.70
2018-06-15T08:09:47.311Z,21.90
2018-06-15T08:12:15.663Z,21.90
2018-06-15T08:14:43.941Z,22.10
2018-06-15T08:17:12.239Z,22.20
2018-06-15T08:19:40.473Z,22.20
2018-06-15T08:22:08.732Z,22.40
2018-06-15T08:24:36.980Z,22.60
2018-06-15T08:27:05.247Z,22.90
2018-06-15T08:29:33.557Z,23.00
2018-06-15T08:32:01.867Z,23.10
2018-06-15T08:34:30.249Z,23.10
2018-06-15T08:36:58.689Z,23.20
2018-06-15T08:39:26.948Z,23.10
2018-06-15T08:41:55.191Z,23.20
2018-06-15T08:44:23.593Z,23.20
2018-06-15T08:46:51.848Z,23.30
2018-06-15T08:49:20.125Z,23.40
2018-06-15T08:51:48.445Z,23.50
2018-06-15T08:54:16.718Z,23.70
2018-06-15T08:56:44.946Z,23.80
2018-06-15T08:59:13.279Z,23.90
2018-06-15T09:01:41.594Z,23.90
2018-06-15T09:04:09.836Z,23.90
2018-06-15T09:06:38.092Z,23.70
2018-06-15T09:09:07.729Z,23.60
2018-06-15T09:14:04.084Z,23.60
2018-06-15T09:21:28.600Z,23.80
2018-06-15T09:23:56.810Z,23.90
2018-06-15T09:26:25.036Z,23.80
2018-06-15T09:28:53.308Z,23.70
2018-06-15T09:31:21.552Z,23.50
2018-06-15T09:33:49.812Z,23.50
2018-06-15T09:36:18.114Z,23.60
2018-06-15T09:38:46.387Z,23.70
2018-06-15T09:41:14.665Z,23.90
2018-06-15T09:43:42.939Z,23.90
2018-06-15T09:46:11.257Z,24.10
2018-06-15T09:48:42.155Z,24.10
2018-06-15T09:51:10.679Z,24.00
2018-06-15T09:53:38.950Z,23.80
2018-06-15T09:56:07.212Z,23.70
2018-06-15T09:58:35.468Z,23.70
2018-06-15T10:01:08.076Z,24.00
2018-06-15T10:03:36.852Z,24.20
2018-06-15T10:06:05.132Z,24.60
2018-06-15T10:08:33.731Z,24.80
2018-06-15T10:11:02.137Z,24.90
2018-06-15T10:13:30.419Z,25.10
2018-06-15T10:15:58.686Z,25.00
2018-06-15T10:18:26.965Z,24.90
2018-06-15T10:20:55.213Z,24.90
2018-06-15T10:23:23.473Z,25.00
2018-06-15T10:25:51.752Z,25.10
2018-06-15T10:28:20.000Z,25.10
2018-06-15T10:30:48.278Z,25.20
2018-06-15T10:33:16.511Z,25.40
2018-06-15T10:35:44.756Z,25.70
2018-06-15T10:38:13.001Z,25.80
2018-06-15T10:40:41.447Z,25.80
2018-06-15T10:43:09.697Z,25.80
2018-06-15T10:45:37.941Z,25.80
2018-06-15T10:48:06.192Z,25.70
2018-06-15T10:50:34.436Z,25.50
2018-06-15T10:53:02.696Z,25.40
2018-06-15T10:55:30.939Z,25.50
2018-06-15T10:57:59.184Z,25.70
2018-06-15T11:00:27.444Z,25.60
2018-06-15T11:02:55.667Z,25.70
2018-06-15T11:05:23.904Z,25.80
2018-06-15T11:07:52.156Z,25.80
2018-06-15T11:10:20.583Z,25.80
2018-06-15T11:12:48.815Z,25.90
2018-06-15T11:15:17.097Z,26.10
2018-06-15T11:17:45.453Z,26.20
2018-06-15T11:20:13.725Z,26.40
2018-06-15T11:22:42.134Z,26.70
2018-06-15T11:25:10.375Z,26.70
2018-06-15T11:27:38.612Z,26.80
2018-06-15T11:30:06.891Z,26.90
2018-06-15T11:32:35.233Z,26.90
2018-06-15T11:35:03.452Z,26.90
2018-06-15T11:37:31.729Z,26.90
2018-06-15T11:40:00.108Z,26.80
2018-06-15T11:42:28.433Z,26.80
2018-06-15T11:44:56.673Z,26.60
2018-06-15T11:47:24.944Z,26.50
2018-06-15T11:49:53.238Z,26.50
2018-06-15T11:52:21.492Z,26.50
2018-06-15T11:54:49.764Z,26.50
2018-06-15T11:57:18.056Z,26.60
2018-06-15T11:59:46.307Z,26.80
2018-06-15T12:02:14.541Z,26.80
2018-06-15T12:04:42.807Z,27.00
2018-06-15T12:07:11.080Z,27.20
2018-06-15T12:12:07.807Z,27.70
2018-06-15T12:14:36.057Z,27.80
2018-06-15T12:17:04.368Z,28.00
2018-06-15T12:19:32.718Z,28.10
2018-06-15T12:22:00.984Z,28.20
2018-06-15T12:24:29.247Z,28.20
2018-06-15T12:26:57.512Z,28.20
2018-06-15T12:29:25.792Z,28.30
2018-06-15T12:31:54.008Z,28.20
2018-06-15T12:34:22.260Z,28.20
2018-06-15T12:36:50.957Z,28.10
2018-06-15T12:39:19.358Z,28.00
2018-06-15T12:41:47.634Z,27.80
2018-06-15T12:44:15.974Z,27.70
2018-06-15T12:46:44.224Z,27.70
2018-06-15T12:49:12.508Z,27.60
2018-06-15T12:51:40.783Z,27.60
2018-06-15T12:54:09.059Z,27.60
2018-06-15T12:56:37.363Z,27.80
2018-06-15T12:59:05.691Z,28.20
2018-06-15T13:01:33.910Z,28.50
2018-06-15T13:04:02.214Z,28.90
2018-06-15T13:06:30.477Z,29.20
2018-06-15T13:08:58.920Z,29.40
2018-06-15T13:11:27.174Z,29.30
2018-06-15T13:13:55.469Z,29.20
2018-06-15T13:16:23.748Z,29.00
2018-06-15T13:18:51.975Z,29.00
2018-06-15T13:21:20.252Z,29.10
2018-06-15T13:23:48.576Z,29.30
2018-06-15T13:26:16.723Z,29.40
2018-06-15T13:28:44.980Z,29.60
2018-06-15T13:31:13.232Z,29.60
2018-06-15T13:33:41.493Z,29.70
2018-06-15T13:36:09.788Z,30.00
2018-06-15T13:38:38.048Z,30.00
2018-06-15T13:41:06.308Z,30.00
2018-06-15T13:43:34.561Z,30.00
2018-06-15T13:46:02.788Z,30.00
2018-06-15T13:48:31.017Z,30.30
2018-06-15T13:50:59.272Z,31.20
2018-06-15T13:53:27.518Z,33.00
2018-06-15T13:55:55.740Z,34.40
2018-06-15T13:58:24.060Z,36.40
2018-06-15T14:03:20.441Z,39.10
2018-06-15T14:05:48.699Z,40.00
2018-06-15T14:08:16.945Z,40.80
2018-06-15T14:10:45.221Z,41.80
2018-06-15T14:13:13.462Z,42.30
2018-06-15T14:15:41.699Z,43.00
2018-06-15T14:18:09.973Z,44.00
2018-06-15T14:20:38.308Z,44.80
2018-06-15T14:23:06.527Z,45.60
2018-06-15T14:25:34.777Z,46.30
2018-06-15T14:28:03.034Z,46.70
2018-06-15T14:30:31.382Z,47.00
2018-06-15T14:32:59.640Z,45.20
2018-06-15T14:35:28.065Z,45.40
2018-06-15T14:37:56.347Z,47.00
2018-06-15T14:40:24.636Z,48.40
2018-06-15T14:42:52.859Z,49.20
2018-06-15T14:45:21.144Z,48.40
2018-06-15T14:47:49.384Z,47.80
2018-06-15T14:50:17.723Z,45.80
2018-06-15T14:52:45.959Z,45.40
2018-06-15T14:55:14.226Z,46.20
2018-06-15T14:57:42.476Z,47.20
2018-06-15T15:02:38.994Z,49.20
2018-06-15T15:05:07.712Z,50.50
2018-06-15T15:07:36.108Z,51.20
2018-06-15T15:10:05.444Z,51.20
2018-06-15T15:12:34.379Z,51.10
2018-06-15T15:15:03.056Z,51.00
2018-06-15T15:17:31.588Z,50.80
2018-06-15T15:19:59.928Z,51.40
2018-06-15T15:22:28.192Z,52.30
2018-06-15T15:24:56.664Z,52.90
2018-06-15T15:27:25.391Z,53.30
2018-06-15T15:29:54.099Z,53.30
2018-06-15T15:32:22.600Z,52.90
2018-06-15T15:34:50.942Z,52.10
2018-06-15T15:37:19.577Z,51.30
2018-06-15T15:39:48.575Z,50.90
2018-06-15T15:42:16.931Z,51.50
2018-06-15T15:44:45.583Z,52.10
2018-06-15T15:47:14.610Z,52.10
2018-06-15T15:49:43.296Z,52.20
2018-06-15T15:52:11.875Z,51.20
2018-06-15T15:54:40.620Z,49.80
2018-06-15T15:57:09.044Z,48.90
2018-06-15T15:59:37.562Z,48.80
2018-06-15T16:02:06.323Z,48.30
2018-06-15T16:04:34.989Z,46.80
2018-06-15T16:07:03.539Z,44.90
2018-06-15T16:09:32.351Z,43.70
2018-06-15T16:12:00.591Z,42.70
2018-06-15T16:14:29.219Z,41.70
2018-06-15T16:16:57.896Z,40.60
2018-06-15T16:19:26.648Z,39.50
2018-06-15T16:21:54.955Z,38.70
2018-06-15T16:24:24.008Z,37.90
2018-06-15T16:26:52.602Z,37.30
2018-06-15T16:29:22.090Z,36.60
2018-06-15T16:31:50.921Z,36.00
2018-06-15T16:34:19.436Z,35.40
2018-06-15T16:36:47.766Z,35.00
2018-06-15T16:39:16.731Z,34.80
2018-06-15T16:41:45.559Z,34.90
2018-06-15T16:44:13.821Z,34.90
2018-06-15T16:46:42.083Z,34.60
2018-06-15T16:49:10.312Z,34.20
2018-06-15T16:54:06.652Z,33.40
2018-06-15T16:56:34.938Z,33.00
2018-06-15T17:01:32.037Z,32.30
2018-06-15T17:04:00.456Z,32.20
2018-06-15T17:06:28.836Z,32.00
2018-06-15T17:08:57.151Z,32.00
2018-06-15T17:11:26.081Z,32.10
2018-06-15T17:13:55.059Z,32.20
2018-06-15T17:16:24.851Z,32.20
2018-06-15T17:21:22.267Z,32.00
2018-06-15T17:26:19.571Z,32.20
2018-06-15T17:28:49.078Z,32.60
2018-06-15T17:31:18.321Z,32.90
2018-06-15T17:33:46.559Z,32.60
2018-06-15T17:36:15.686Z,32.00
2018-06-15T17:41:13.078Z,31.50
2018-06-15T17:43:41.865Z,31.30
2018-06-15T17:46:10.407Z,31.30
2018-06-15T17:48:38.764Z,31.50
2018-06-15T17:53:36.378Z,33.00
2018-06-15T17:56:04.600Z,33.30
2018-06-15T17:58:32.872Z,33.70
2018-06-15T18:01:01.144Z,34.40
2018-06-15T18:03:29.402Z,34.90
2018-06-15T18:05:57.672Z,34.70
2018-06-15T18:08:25.973Z,34.10
2018-06-15T18:10:54.241Z,33.40
2018-06-15T18:13:22.489Z,32.60
2018-06-15T18:15:50.747Z,32.00
2018-06-15T18:18:19.001Z,31.70
2018-06-15T18:20:47.416Z,31.60
2018-06-15T18:23:15.753Z,31.30
2018-06-15T18:25:43.989Z,31.00
2018-06-15T18:28:12.233Z,30.80
2018-06-15T18:30:40.508Z,30.50
2018-06-15T18:33:08.780Z,30.20
2018-06-15T18:35:37.008Z,29.80
2018-06-15T18:38:05.452Z,29.50
2018-06-15T18:40:33.835Z,29.40
2018-06-15T18:43:02.090Z,29.30
2018-06-15T18:45:30.390Z,29.20
2018-06-15T18:47:58.703Z,29.20
2018-06-15T18:50:26.991Z,29.10
2018-06-15T18:52:55.232Z,28.90
2018-06-15T18:55:24.395Z,28.80
2018-06-15T18:57:52.691Z,28.70
2018-06-15T19:00:21.508Z,28.60
2018-06-15T19:02:50.575Z,28.50
2018-06-15T19:05:25.379Z,28.40
2018-06-15T19:07:53.802Z,28.30
2018-06-15T19:10:22.070Z,28.20
2018-06-15T19:12:50.339Z,28.10
2018-06-15T19:15:18.630Z,28.00
2018-06-15T19:17:46.914Z,27.90
2018-06-15T19:20:15.248Z,27.70
2018-06-15T19:22:43.672Z,27.60
2018-06-15T19:25:11.916Z,27.50
2018-06-15T19:27:40.423Z,27.40
2018-06-15T19:30:09.360Z,27.20
2018-06-15T19:32:37.600Z,27.10
2018-06-15T19:35:05.846Z,27.00
2018-06-15T19:42:36.667Z,26.70
2018-06-15T19:45:05.082Z,26.50
2018-06-15T19:47:33.236Z,26.50
2018-06-15T19:50:01.610Z,26.30
2018-06-15T19:52:30.023Z,26.10
2018-06-15T19:54:58.535Z,26.00
2018-06-15T19:57:26.787Z,25.90
2018-06-15T19:59:55.060Z,25.80
2018-06-15T20:02:23.321Z,25.70
2018-06-15T20:04:51.615Z,25.50
2018-06-15T20:07:19.848Z,25.40
2018-06-15T20:09:48.137Z,25.20
2018-06-15T20:12:16.391Z,25.20
2018-06-15T20:14:45.504Z,25.10
2018-06-15T20:17:13.799Z,24.90
2018-06-15T20:19:42.056Z,24.90
2018-06-15T20:22:10.319Z,24.80
2018-06-15T20:24:38.546Z,24.70
2018-06-15T20:27:07.140Z,24.70
2018-06-15T20:29:35.431Z,24.60
2018-06-15T20:32:03.672Z,24.60
2018-06-15T20:34:31.929Z,24.50
2018-06-15T20:37:00.540Z,24.40
2018-06-15T20:39:28.791Z,24.30
2018-06-15T20:41:57.049Z,24.10
2018-06-15T20:46:53.282Z,23.90
2018-06-15T20:49:22.287Z,23.90
2018-06-15T20:51:50.616Z,23.80
2018-06-15T20:54:19.289Z,23.70
2018-06-15T20:56:47.557Z,23.60
2018-06-15T20:59:15.804Z,23.60
2018-06-15T21:04:12.080Z,23.40
2018-06-15T21:06:40.339Z,23.40
2018-06-15T21:09:09.539Z,23.30
2018-06-15T21:11:37.887Z,23.20
2018-06-15T21:14:06.196Z,23.20
2018-06-15T21:16:34.504Z,23.00
2018-06-15T21:19:02.752Z,22.90
2018-06-15T21:21:31.013Z,22.80
2018-06-15T21:23:59.271Z,22.70
2018-06-15T21:26:27.559Z,22.60
2018-06-15T21:28:56.135Z,22.60
2018-06-15T21:31:24.601Z,22.50
2018-06-15T21:33:52.884Z,22.50
2018-06-15T21:36:21.155Z,22.50
2018-06-15T21:38:49.424Z,22.40
2018-06-15T21:41:17.723Z,22.40
2018-06-15T21:43:45.972Z,22.40
2018-06-15T21:46:14.224Z,22.40
2018-06-15T21:48:42.459Z,22.30
2018-06-15T21:51:10.754Z,22.30
2018-06-15T21:53:39.043Z,22.10
2018-06-15T21:56:07.309Z,22.10
2018-06-15T21:58:35.568Z,22.00
2018-06-15T22:01:03.808Z,22.00
2018-06-15T22:03:32.085Z,21.90
2018-06-15T22:06:00.389Z,21.90
2018-06-15T22:08:28.692Z,21.80
2018-06-15T22:10:56.955Z,21.70
2018-06-15T22:13:25.212Z,21.60
2018-06-15T22:15:53.695Z,21.60
2018-06-15T22:18:21.994Z,21.50
2018-06-15T22:20:50.235Z,21.50
2018-06-15T22:23:18.488Z,21.40
2018-06-15T22:25:46.828Z,21.30
2018-06-15T22:28:15.096Z,21.30
2018-06-15T22:30:43.335Z,21.20
2018-06-15T22:33:11.620Z,21.20
2018-06-15T22:35:39.823Z,21.10
2018-06-15T22:38:08.104Z,21.10
2018-06-15T22:40:36.532Z,21.10
2018-06-15T22:43:04.828Z,21.10
2018-06-15T22:45:33.092Z,21.10
2018-06-15T22:48:01.341Z,21.10
2018-06-15T22:50:29.588Z,21.00
2018-06-15T22:52:57.840Z,21.00
2018-06-15T22:57:54.104Z,21.00
2018-06-15T23:00:24.144Z,20.90
2018-06-15T23:02:52.404Z,20.90
2018-06-15T23:05:20.652Z,20.90
2018-06-15T23:07:48.955Z,20.90
2018-06-15T23:10:17.284Z,20.90
2018-06-15T23:12:45.542Z,20.90
2018-06-15T23:15:13.813Z,20.90
2018-06-15T23:17:42.067Z,20.90
2018-06-15T23:20:10.328Z,20.80
2018-06-15T23:22:39.166Z,20.80
2018-06-15T23:27:35.792Z,20.80
2018-06-15T23:30:04.465Z,20.80
2018-06-15T23:32:32.737Z,20.70
2018-06-15T23:35:00.993Z,20.70
2018-06-15T23:37:29.264Z,20.70
2018-06-15T23:39:57.628Z,20.70
2018-06-15T23:42:25.921Z,20.80
2018-06-15T23:44:54.160Z,20.80
2018-06-15T23:47:22.409Z,20.80
2018-06-15T23:49:50.637Z,20.90
2018-06-15T23:52:18.902Z,20.80
2018-06-15T23:54:47.390Z,20.80
2018-06-15T23:57:15.647Z,20.70
2018-06-15T23:59:43.929Z,20.70
